Forside
METAR-TAF:

METAR-TAF

Lufthavne :

John H. Batten Airport

Racine, Wisconsin, USA

Breddekreds: 42-45-31N, længdekreds: 087-49-04W, højde: 205 m

Aktuelle vejr

Denne rapport blev lavet for 1 time og 11 minutter siden, kl. 10:53 UTC
Vind 12 kt fra sydsydøst
Temperatur 5°C
Fugtighed 65%
Tryk 1024 hPa
Sigt: 16.1 km
Overskyet i en højde af 2700 ft

METAR: KRAC 241053Z AUTO 15012KT 10SM OVC027 05/M01 A3025 RMK AO2 SLP251 T00501006

Tid: 06:04 (12:04 UTC)


TAF: fraværende

Vejrobservationer og prognoser fra mere end 4000 lufthavne (METAR og TAF).

De gule og røde prikker repræsenterer de meteorologiske stationer.

Flyt musen over at se navnet på stationen.

Så klik over at se vejr observationer og prognoser.

At skifte det kort: Klik på de grønne knapper med et sort kors for at zoome ind; på den grønne knap med en bindestreg for at zoome ud; eller på de grønne pile for tilstødende kort.


METAR-TAF: